Edina, MN (55435)

4:56 PM CDT op 07 juli 2015 (GMT -0500)
Cornelia | | Change Station
CLOSE
Current Station
Persoonlijk weerstation
Location: Edina, MN
Geometrische hoogte: 860 ft
Nabije weerstations

Hoogte 860 ft 44.87 °N, 93.34 °W | Updated 4 seconds ago

Helder
Helder
71.6 °F
Voelt als 77 °F
N
2.7
Wind Variabel Wind van NNO
Gusts 4.9 mijl/u

Vandaag
Hoog -- | Laag -- °F
--% Kans op neerslag
Gisteren
Hoog -- | Laag -- °F
Precip. -- inches
5:34 AM 9:01 PM
Afnemende maan, 61% visible
Druk 30.12 inches
Zicht 10.0 mijlen
Wolken Licht bewolkt 5000 ft
Merendeels bewolkt 30000 ft
Warmteindex 77 °F
Dauwpunt 47 °F
Vochtigheid 42%
Neerslag 0.00 inches
Dikte sneeuw Niet beschikbaar.
UV 2.0 van de 12
Pollen 3.60 van de 12
Luchtkwaliteit Niet beschikbaar.
Flu Activity Niet beschikbaar.
METAR KMSP 072153Z 35007KT 10SM SCT050 BKN300 22/09 A3012 RMK AO2 SLP199 T02220089

More Conditions Fewer Conditions

Druk 30.12 inches
Zicht 10.0 mijlen
Wolken Licht bewolkt 5000 ft
Merendeels bewolkt 30000 ft
Warmteindex 77 °F
Dauwpunt 47 °F
Vochtigheid 42%
Neerslag 0.00 inches
Dikte sneeuw Niet beschikbaar.
UV 2.0 van de 12
Pollen 3.60 van de 12
Luchtkwaliteit Niet beschikbaar.
Flu Activity Niet beschikbaar.
METAR KMSP 072153Z 35007KT 10SM SCT050 BKN300 22/09 A3012 RMK AO2 SLP199 T02220089

More Conditions Fewer Conditions

10-Day Weather Forecast

×

Almanac

Astronomie

Jul. 07, 2015 Opkomst Ondergang
Werkelijke tijd
Burgerlijke schemering
Nautische schemering
Astronomische schemering
Maan
Golflengte van het zichtbare licht
Daglengte
Tomorrow will be .
, % of the Moon is Illuminated

Extremen vandaag

State Highs State Lows

Community

WunderPhotos

Upload Photos

1,835,928 foto’s ge-upload!

WunderBlogs® & News

Nearby

Luchtkwaliteit

  Luchtkwaliteit LK-index Verontreinigende stof
Not available.

Dikte sneeuw

Station Depth Geometrische hoogte

Aardbevingen

Stad Distance Mag. Time & Date
Minimum magnitude displayed is 2.5.

Watertemperatuur langs de kust

Plaats Temperatuur

Stations

Nabije weerstations

Locatie station Temp. Gevoelstemperatuur Dauwpunt Vochtigheid Wind Precip. Hoogte Geactualiseerd Type